Time;durP1;ratioP1;P1;durP2;ratioP2;P2;SDS_P1;SDS_P2;PMS_P1;PMS_P2;Temp;Humidity;BMP_temperature;BMP_pressure;BME280_temperature;BME280_humidity;BME280_pressure;Samples;Min_cycle;Max_cycle;Signal;HPM_P1;HPM_P2
2022/10/12 00:02:19;;;;;;;17.57;10.10;;;8.60;99.90;;;;;;5110162;28;20215;-67
2022/10/12 00:04:45;;;;;;;22.33;11.70;;;8.60;99.90;;;;;;5111954;28;20227;-67
2022/10/12 00:07:13;;;;;;;18.67;11.23;;;8.60;99.90;;;;;;5110791;28;20683;-68
2022/10/12 00:09:40;;;;;;;21.57;10.77;;;8.60;99.90;;;;;;5112013;28;20207;-68
2022/10/12 00:12:07;;;;;;;23.97;10.87;;;8.60;99.90;;;;;;5110215;28;20664;-67
2022/10/12 00:14:35;;;;;;;20.03;10.67;;;8.60;99.90;;;;;;5104730;28;20204;-68
2022/10/12 00:17:02;;;;;;;21.83;11.30;;;8.60;99.90;;;;;;5107317;28;20230;-68
2022/10/12 00:19:29;;;;;;;19.13;10.90;;;8.50;99.90;;;;;;5110202;28;20237;-68
2022/10/12 00:21:56;;;;;;;20.63;11.10;;;8.60;99.90;;;;;;5110688;27;20616;-67
2022/10/12 00:24:24;;;;;;;19.03;10.93;;;8.50;99.90;;;;;;5112613;28;20230;-68
2022/10/12 00:26:51;;;;;;;18.13;10.87;;;8.50;99.90;;;;;;5111377;28;20246;-68
2022/10/12 00:29:17;;;;;;;21.67;10.90;;;8.60;99.90;;;;;;5111698;28;20215;-68
2022/10/12 00:31:44;;;;;;;23.33;11.10;;;8.50;99.90;;;;;;5111651;28;20218;-69
2022/10/12 00:34:11;;;;;;;22.27;11.03;;;8.50;99.90;;;;;;5109507;28;20212;-68
2022/10/12 00:36:38;;;;;;;22.07;11.07;;;8.50;99.90;;;;;;5098951;28;20234;-68
2022/10/12 00:39:07;;;;;;;22.17;10.47;;;8.50;99.90;;;;;;5112044;28;20287;-68
2022/10/12 00:41:37;;;;;;;21.63;11.60;;;8.50;99.90;;;;;;5097576;28;20208;-68
2022/10/12 00:44:04;;;;;;;16.90;11.17;;;8.40;99.90;;;;;;5111362;28;20239;-69
2022/10/12 00:46:36;;;;;;;22.37;11.63;;;8.50;99.90;;;;;;5108908;28;20571;-69
2022/10/12 00:49:09;;;;;;;20.10;10.83;;;8.50;99.90;;;;;;5110474;28;20200;-68
2022/10/12 00:51:37;;;;;;;21.47;10.67;;;8.50;99.90;;;;;;5111560;28;20546;-70
2022/10/12 00:54:09;;;;;;;17.30;10.40;;;8.40;99.90;;;;;;5111186;28;20212;-68
2022/10/12 00:56:41;;;;;;;19.53;11.30;;;8.40;99.90;;;;;;5110007;28;20200;-68
2022/10/12 00:59:11;;;;;;;18.87;10.77;;;8.40;99.90;;;;;;5112995;28;20613;-67
2022/10/12 01:01:39;;;;;;;19.07;11.23;;;8.50;99.90;;;;;;5109554;28;20560;-69
2022/10/12 01:04:07;;;;;;;20.43;11.27;;;8.40;99.90;;;;;;5111831;28;20704;-69
2022/10/12 01:06:34;;;;;;;20.17;10.70;;;8.40;99.90;;;;;;5107799;28;20219;-69
2022/10/12 01:09:02;;;;;;;28.60;11.67;;;8.40;99.90;;;;;;5110978;28;20200;-71
2022/10/12 01:11:28;;;;;;;18.67;10.90;;;8.40;99.90;;;;;;5109778;28;20685;-69
2022/10/12 01:13:57;;;;;;;21.80;11.83;;;8.40;99.90;;;;;;5111993;28;20211;-68
2022/10/12 01:16:28;;;;;;;22.27;11.70;;;8.30;99.90;;;;;;5109073;28;20698;-67
2022/10/12 01:19:02;;;;;;;19.47;10.97;;;8.30;99.90;;;;;;5110930;28;20546;-67
2022/10/12 01:21:32;;;;;;;18.17;10.67;;;8.30;99.90;;;;;;5108562;28;20207;-68
2022/10/12 01:24:31;;;;;;;21.33;11.27;;;8.30;99.90;;;;;;5110792;28;20227;-68
2022/10/12 01:27:09;;;;;;;19.00;10.60;;;8.20;99.90;;;;;;5108242;28;20232;-68
2022/10/12 01:30:04;;;;;;;20.50;10.93;;;8.20;99.90;;;;;;5111140;28;20207;-67
2022/10/12 01:32:38;;;;;;;19.53;11.47;;;8.10;99.90;;;;;;5099337;28;20214;-68
2022/10/12 01:35:09;;;;;;;25.43;10.83;;;8.10;99.90;;;;;;5111897;28;20196;-67
2022/10/12 01:37:45;;;;;;;21.50;10.90;;;8.10;99.90;;;;;;5107708;28;20574;-68
2022/10/12 01:40:16;;;;;;;19.37;11.73;;;8.10;99.90;;;;;;5110598;28;20207;-68
2022/10/12 01:42:44;;;;;;;19.67;11.80;;;8.00;99.90;;;;;;5108968;28;20561;-67
2022/10/12 01:45:13;;;;;;;25.03;11.57;;;8.10;99.90;;;;;;5107708;28;20228;-68
2022/10/12 01:47:43;;;;;;;21.83;11.90;;;8.00;99.90;;;;;;5109428;28;20200;-68
2022/10/12 01:50:13;;;;;;;26.27;11.50;;;8.00;99.90;;;;;;5109563;28;20211;-67
2022/10/12 01:52:47;;;;;;;18.73;11.47;;;8.10;99.90;;;;;;5109489;28;20203;-68
2022/10/12 01:55:33;;;;;;;22.73;11.03;;;8.00;99.90;;;;;;5106860;28;20196;-68
2022/10/12 01:58:34;;;;;;;18.03;10.23;;;7.90;99.90;;;;;;5110007;27;20207;-68
2022/10/12 02:01:11;;;;;;;20.57;11.93;;;8.00;99.90;;;;;;5047959;28;20213;-67
2022/10/12 02:03:44;;;;;;;20.47;11.30;;;8.00;99.90;;;;;;5110111;28;20195;-69
2022/10/12 02:06:13;;;;;;;16.73;10.37;;;8.00;99.90;;;;;;5108464;28;20223;-67
2022/10/12 02:08:46;;;;;;;23.87;11.07;;;7.90;99.90;;;;;;5109646;28;20208;-68
2022/10/12 02:11:15;;;;;;;21.57;11.13;;;7.90;99.90;;;;;;5108167;28;20204;-68
2022/10/12 02:13:46;;;;;;;24.77;11.83;;;7.90;99.90;;;;;;5109981;28;20696;-68
2022/10/12 02:16:17;;;;;;;19.73;11.07;;;7.90;99.90;;;;;;5108275;28;20203;-68
2022/10/12 02:18:50;;;;;;;22.33;11.67;;;7.80;99.90;;;;;;5108348;28;20200;-69
2022/10/12 02:21:21;;;;;;;21.70;11.03;;;7.90;99.90;;;;;;5108743;28;20535;-68
2022/10/12 02:23:50;;;;;;;22.70;12.30;;;7.90;99.90;;;;;;5108834;28;20606;-68
2022/10/12 02:26:18;;;;;;;23.83;11.83;;;7.80;99.90;;;;;;5102627;28;20242;-67
2022/10/12 02:28:47;;;;;;;21.17;11.17;;;7.80;99.90;;;;;;5109493;28;20470;-68
2022/10/12 02:31:23;;;;;;;22.00;11.27;;;7.90;99.90;;;;;;5108181;28;20476;-68
2022/10/12 02:33:59;;;;;;;24.00;11.00;;;7.80;99.90;;;;;;5108730;28;20192;-67
2022/10/12 02:36:35;;;;;;;19.80;10.83;;;7.80;99.90;;;;;;5107602;28;20200;-68
2022/10/12 02:39:06;;;;;;;21.53;11.67;;;7.80;99.90;;;;;;5108815;28;20686;-67
2022/10/12 02:41:38;;;;;;;18.90;10.53;;;7.80;99.90;;;;;;5108614;28;20614;-67
2022/10/12 02:44:08;;;;;;;19.03;10.57;;;7.80;99.90;;;;;;5107258;28;20216;-69
2022/10/12 02:46:36;;;;;;;22.63;10.60;;;7.80;99.90;;;;;;5108783;28;20211;-68
2022/10/12 02:49:06;;;;;;;22.60;11.27;;;7.80;99.90;;;;;;5110067;28;20595;-68
2022/10/12 02:51:35;;;;;;;21.43;11.67;;;7.80;99.90;;;;;;5107516;28;20204;-67
2022/10/12 02:54:03;;;;;;;17.77;11.10;;;7.80;99.90;;;;;;5108930;28;20199;-68
2022/10/12 02:56:29;;;;;;;18.37;10.83;;;7.80;99.90;;;;;;5108344;28;20211;-68
2022/10/12 02:58:56;;;;;;;21.50;10.93;;;7.70;99.90;;;;;;5109366;28;20234;-68
2022/10/12 03:01:23;;;;;;;18.27;10.80;;;7.70;99.90;;;;;;5107363;28;20551;-67
2022/10/12 03:03:50;;;;;;;25.57;11.37;;;7.70;99.90;;;;;;5108476;28;20204;-69
2022/10/12 03:06:19;;;;;;;19.13;10.73;;;7.70;99.90;;;;;;5108700;28;20615;-68
2022/10/12 03:08:46;;;;;;;23.93;11.77;;;7.70;99.90;;;;;;5109996;28;20203;-68
2022/10/12 03:11:13;;;;;;;22.67;10.97;;;7.60;99.90;;;;;;5108502;28;20196;-68
2022/10/12 03:13:40;;;;;;;21.10;10.90;;;7.60;99.90;;;;;;5107377;28;20269;-68
2022/10/12 03:16:09;;;;;;;18.33;11.07;;;7.60;99.90;;;;;;5108557;28;20204;-68
2022/10/12 03:18:35;;;;;;;20.80;11.23;;;7.50;99.90;;;;;;5105896;28;20219;-67
2022/10/12 03:21:03;;;;;;;21.53;11.37;;;7.50;99.90;;;;;;5106861;28;20547;-68
2022/10/12 03:23:31;;;;;;;19.83;10.87;;;7.50;99.90;;;;;;5107491;28;20686;-68
2022/10/12 03:25:58;;;;;;;17.77;10.37;;;7.50;99.90;;;;;;5107287;28;20703;-69
2022/10/12 03:28:24;;;;;;;23.10;11.03;;;7.50;99.90;;;;;;5107867;28;20207;-67
2022/10/12 03:30:51;;;;;;;22.37;11.50;;;7.50;99.90;;;;;;5106975;28;20656;-69
2022/10/12 03:33:18;;;;;;;21.57;11.47;;;7.40;99.90;;;;;;5107605;28;20751;-68
2022/10/12 03:35:45;;;;;;;18.97;10.83;;;7.40;99.90;;;;;;5108402;28;20215;-68
2022/10/12 03:38:12;;;;;;;18.43;11.03;;;7.40;99.90;;;;;;5107553;28;20648;-68
2022/10/12 03:40:40;;;;;;;20.10;12.23;;;7.40;99.90;;;;;;5108061;28;20211;-68
2022/10/12 03:43:07;;;;;;;23.40;11.27;;;7.30;99.90;;;;;;5107558;28;20579;-68
2022/10/12 03:45:35;;;;;;;20.00;11.70;;;7.40;99.90;;;;;;5108539;28;20238;-68
2022/10/12 03:48:01;;;;;;;25.80;11.87;;;7.30;99.90;;;;;;5107165;28;20196;-68
2022/10/12 03:50:28;;;;;;;15.70;10.20;;;7.30;99.90;;;;;;5105722;28;20223;-68
2022/10/12 03:52:55;;;;;;;23.93;11.83;;;7.30;99.90;;;;;;5110166;28;20211;-68
2022/10/12 03:55:22;;;;;;;17.63;11.10;;;7.30;99.90;;;;;;5111588;28;20207;-68
2022/10/12 03:57:50;;;;;;;18.17;10.80;;;7.30;99.90;;;;;;5109589;28;20299;-68
2022/10/12 04:00:17;;;;;;;25.80;12.33;;;7.30;99.90;;;;;;5111581;28;20579;-68
2022/10/12 04:02:44;;;;;;;18.80;10.47;;;7.30;99.90;;;;;;5107551;28;20212;-68
2022/10/12 04:05:11;;;;;;;21.27;11.67;;;7.30;99.90;;;;;;5110211;28;20215;-67
2022/10/12 04:07:37;;;;;;;22.07;11.47;;;7.30;99.90;;;;;;5109209;28;20214;-68
2022/10/12 04:10:05;;;;;;;21.03;11.07;;;7.20;99.90;;;;;;5111564;28;20204;-68
2022/10/12 04:12:32;;;;;;;16.33;10.53;;;7.20;99.90;;;;;;5111333;28;20203;-68
2022/10/12 04:15:00;;;;;;;20.97;10.10;;;7.20;99.90;;;;;;5110824;28;20207;-68
2022/10/12 04:17:27;;;;;;;19.63;11.33;;;7.20;99.90;;;;;;5108346;28;20196;-68
2022/10/12 04:19:53;;;;;;;21.53;11.60;;;7.20;99.90;;;;;;5110223;28;20211;-68
2022/10/12 04:22:20;;;;;;;24.90;11.53;;;7.20;99.90;;;;;;5109605;28;20277;-68
2022/10/12 04:24:47;;;;;;;23.47;12.00;;;7.20;99.90;;;;;;5111880;28;20675;-68
2022/10/12 04:27:13;;;;;;;21.40;11.13;;;7.10;99.90;;;;;;5109898;28;20247;-68
2022/10/12 04:29:40;;;;;;;26.03;11.17;;;7.20;99.90;;;;;;5107905;27;20207;-68
2022/10/12 04:32:09;;;;;;;22.07;12.07;;;7.10;99.90;;;;;;5110792;28;20204;-68
2022/10/12 04:34:35;;;;;;;22.13;10.27;;;7.10;99.90;;;;;;5109130;28;20200;-69
2022/10/12 04:37:02;;;;;;;23.90;11.33;;;7.10;99.90;;;;;;5109477;28;20195;-68
2022/10/12 04:39:30;;;;;;;24.13;11.63;;;7.10;99.90;;;;;;5108894;28;20204;-68
2022/10/12 04:41:56;;;;;;;19.47;11.63;;;7.10;99.90;;;;;;5109943;28;20215;-68
2022/10/12 04:44:23;;;;;;;25.53;11.80;;;7.10;99.90;;;;;;5106259;28;20204;-69
2022/10/12 04:46:50;;;;;;;22.83;10.97;;;7.10;99.90;;;;;;5109429;28;20235;-69
2022/10/12 04:49:18;;;;;;;21.53;11.23;;;7.10;99.90;;;;;;5109884;28;20219;-68
2022/10/12 04:51:45;;;;;;;22.23;11.73;;;7.10;99.90;;;;;;5110869;28;20701;-68
2022/10/12 04:54:12;;;;;;;24.83;11.87;;;7.10;99.90;;;;;;5106053;28;20211;-67
2022/10/12 04:56:38;;;;;;;24.67;12.37;;;7.10;99.90;;;;;;5107378;28;20274;-66
2022/10/12 04:59:05;;;;;;;22.27;11.70;;;7.10;99.90;;;;;;5107042;28;20208;-67
2022/10/12 05:01:32;;;;;;;19.93;11.73;;;7.10;99.90;;;;;;5102476;28;20200;-67
2022/10/12 05:03:59;;;;;;;22.73;11.80;;;7.20;99.90;;;;;;5107051;28;20877;-67
2022/10/12 05:06:27;;;;;;;25.70;11.70;;;7.20;99.90;;;;;;5110158;28;20259;-67
2022/10/12 05:08:54;;;;;;;18.97;11.50;;;7.10;99.90;;;;;;5102841;28;20504;-66
2022/10/12 05:11:20;;;;;;;25.07;12.13;;;7.10;99.90;;;;;;5106301;28;20207;-66
2022/10/12 05:13:47;;;;;;;20.30;12.60;;;7.20;99.90;;;;;;5103971;28;20209;-66
2022/10/12 05:16:14;;;;;;;21.70;11.70;;;7.20;99.90;;;;;;5105764;28;20204;-66
2022/10/12 05:18:41;;;;;;;17.97;11.67;;;7.20;99.90;;;;;;5110355;28;20601;-66
2022/10/12 05:21:08;;;;;;;26.37;12.70;;;7.20;99.90;;;;;;5107640;28;20215;-67
2022/10/12 05:23:36;;;;;;;21.27;11.53;;;7.20;99.90;;;;;;5108950;28;20574;-72
2022/10/12 05:26:03;;;;;;;21.63;12.50;;;7.20;99.90;;;;;;5107630;28;20604;-67
2022/10/12 05:28:30;;;;;;;23.47;12.30;;;7.30;99.90;;;;;;5104331;27;20699;-67
2022/10/12 05:30:56;;;;;;;30.80;12.90;;;7.30;99.90;;;;;;5102571;28;20207;-66
2022/10/12 05:33:23;;;;;;;25.43;12.73;;;7.30;99.90;;;;;;5105913;28;20212;-67
2022/10/12 05:35:50;;;;;;;24.57;13.00;;;7.40;99.90;;;;;;5109618;28;20199;-66
2022/10/12 05:38:17;;;;;;;22.80;12.30;;;7.50;99.90;;;;;;5108381;28;20568;-68
2022/10/12 05:40:46;;;;;;;21.37;11.80;;;7.60;99.90;;;;;;5103938;27;20212;-68
2022/10/12 05:43:12;;;;;;;23.33;12.17;;;7.80;99.90;;;;;;5109853;28;20394;-67
2022/10/12 05:45:39;;;;;;;24.93;11.10;;;7.90;99.90;;;;;;5111029;28;20699;-68
2022/10/12 05:48:06;;;;;;;25.67;12.30;;;7.90;99.90;;;;;;5109088;28;20216;-68
2022/10/12 05:50:33;;;;;;;24.67;11.40;;;7.90;99.90;;;;;;5109649;28;21639;-67
2022/10/12 05:52:59;;;;;;;20.67;12.13;;;7.90;99.90;;;;;;5108319;28;20204;-68
2022/10/12 05:55:26;;;;;;;23.43;11.60;;;7.90;99.90;;;;;;5110678;28;20576;-68
2022/10/12 05:57:54;;;;;;;22.50;11.50;;;7.90;99.90;;;;;;5110042;28;20636;-67
2022/10/12 06:00:21;;;;;;;20.00;11.63;;;7.80;99.90;;;;;;5110594;28;20675;-68
2022/10/12 06:02:48;;;;;;;24.17;12.23;;;7.90;99.90;;;;;;5109174;28;20196;-68
2022/10/12 06:05:15;;;;;;;22.53;12.13;;;8.00;99.90;;;;;;5109222;28;20204;-68
2022/10/12 06:07:41;;;;;;;23.30;11.80;;;8.00;99.90;;;;;;5110582;28;20234;-68
2022/10/12 06:10:09;;;;;;;22.37;11.87;;;8.10;99.90;;;;;;5110130;28;20206;-69
2022/10/12 06:12:35;;;;;;;23.07;11.80;;;8.10;99.90;;;;;;5107292;28;20212;-69
2022/10/12 06:15:04;;;;;;;21.93;11.67;;;8.20;99.90;;;;;;5108759;28;20200;-67
2022/10/12 06:17:31;;;;;;;20.23;11.17;;;8.20;99.90;;;;;;5105101;28;20210;-68
2022/10/12 06:19:58;;;;;;;19.93;11.60;;;8.30;99.90;;;;;;5105272;28;20200;-68
2022/10/12 06:22:24;;;;;;;19.83;11.20;;;8.40;99.90;;;;;;5108281;28;20270;-69
2022/10/12 06:24:51;;;;;;;19.47;11.03;;;8.40;99.90;;;;;;5104106;28;20918;-68
2022/10/12 06:27:19;;;;;;;15.30;10.07;;;8.50;99.90;;;;;;5106706;28;20235;-68
2022/10/12 06:29:46;;;;;;;18.17;10.20;;;8.60;99.90;;;;;;5108954;28;20207;-69
2022/10/12 06:32:14;;;;;;;19.50;12.33;;;8.70;99.90;;;;;;5100766;28;20705;-68
2022/10/12 06:34:40;;;;;;;25.93;12.13;;;8.70;99.90;;;;;;5106392;28;20204;-67
2022/10/12 06:37:07;;;;;;;25.67;11.37;;;8.80;99.90;;;;;;5106813;28;20215;-67
2022/10/12 06:39:34;;;;;;;22.83;12.47;;;8.90;99.90;;;;;;5106467;28;20786;-68
2022/10/12 06:42:00;;;;;;;22.40;11.43;;;9.00;99.90;;;;;;5107085;28;20552;-68
2022/10/12 06:44:27;;;;;;;21.70;11.10;;;9.10;99.90;;;;;;5107627;28;20668;-69
2022/10/12 06:46:54;;;;;;;24.27;10.77;;;9.20;99.90;;;;;;5109906;28;20667;-69
2022/10/12 06:49:22;;;;;;;20.43;10.27;;;9.40;99.90;;;;;;5106799;28;20208;-69
2022/10/12 06:51:49;;;;;;;30.20;10.90;;;9.60;99.90;;;;;;5095848;28;20207;-70
2022/10/12 06:54:16;;;;;;;21.90;11.67;;;9.90;99.90;;;;;;5106053;28;20219;-69
2022/10/12 06:56:43;;;;;;;19.43;11.43;;;10.20;99.90;;;;;;5109366;28;20199;-68
2022/10/12 06:59:12;;;;;;;19.10;11.10;;;10.30;99.90;;;;;;5109828;28;20218;-68
2022/10/12 07:01:39;;;;;;;22.17;11.00;;;10.40;99.90;;;;;;5104579;28;20276;-69
2022/10/12 07:04:06;;;;;;;22.40;10.63;;;10.60;99.90;;;;;;5106537;28;20295;-68
2022/10/12 07:06:34;;;;;;;19.50;11.23;;;11.00;99.90;;;;;;5108287;28;20687;-69
2022/10/12 07:09:01;;;;;;;20.73;10.80;;;11.30;99.90;;;;;;5103126;28;20210;-70
2022/10/12 07:11:27;;;;;;;19.93;10.43;;;11.50;99.90;;;;;;5100182;28;20257;-68
2022/10/12 07:13:54;;;;;;;20.23;10.23;;;11.60;99.90;;;;;;5103326;28;20636;-69
2022/10/12 07:16:21;;;;;;;21.73;10.33;;;11.70;99.90;;;;;;5104001;28;20197;-68
2022/10/12 07:18:48;;;;;;;16.80;9.63;;;11.70;99.90;;;;;;5105554;28;20211;-68
2022/10/12 07:21:14;;;;;;;24.60;10.77;;;11.80;99.90;;;;;;5107557;28;20208;-68
2022/10/12 07:23:43;;;;;;;18.77;10.27;;;11.90;99.90;;;;;;5108686;28;20239;-70
2022/10/12 07:26:10;;;;;;;20.50;10.07;;;12.00;99.90;;;;;;5108400;28;20261;-69
2022/10/12 07:28:37;;;;;;;21.60;9.60;;;12.10;99.90;;;;;;5111183;28;20675;-70
2022/10/12 07:31:06;;;;;;;19.93;10.30;;;12.20;99.90;;;;;;5106878;28;20214;-69
2022/10/12 07:33:33;;;;;;;20.90;10.53;;;12.30;99.90;;;;;;5114588;27;20569;-69
2022/10/12 07:36:00;;;;;;;21.50;9.50;;;12.40;99.90;;;;;;5108238;28;20208;-69
2022/10/12 07:38:28;;;;;;;21.23;10.17;;;12.60;99.90;;;;;;5112243;27;20215;-68
2022/10/12 07:41:00;;;;;;;17.20;8.77;;;12.60;99.90;;;;;;5112487;27;20546;-69
2022/10/12 07:43:26;;;;;;;19.27;7.87;;;12.80;99.90;;;;;;5107012;28;20265;-68
2022/10/12 07:45:53;;;;;;;16.60;9.20;;;12.90;99.90;;;;;;5104662;28;20207;-69
2022/10/12 07:48:20;;;;;;;17.27;8.23;;;13.00;99.90;;;;;;5111598;28;20669;-69
2022/10/12 07:50:47;;;;;;;16.90;8.90;;;13.20;99.90;;;;;;5112016;28;20208;-68
2022/10/12 07:53:15;;;;;;;19.00;8.27;;;13.40;99.90;;;;;;5101991;27;20223;-69
2022/10/12 07:55:41;;;;;;;14.73;7.83;;;13.60;99.90;;;;;;5111302;28;20211;-70
2022/10/12 07:58:10;;;;;;;17.00;8.47;;;13.70;99.90;;;;;;5112804;28;20211;-68
2022/10/12 08:00:37;;;;;;;18.47;9.03;;;13.90;99.90;;;;;;5113159;28;20580;-69
2022/10/12 08:03:04;;;;;;;15.17;8.73;;;14.10;99.90;;;;;;5109544;28;20534;-69
2022/10/12 08:05:31;;;;;;;15.63;8.20;;;14.20;99.90;;;;;;5109743;28;20211;-68
2022/10/12 08:07:59;;;;;;;13.13;7.20;;;14.30;99.90;;;;;;5111684;28;20228;-68
2022/10/12 08:10:25;;;;;;;12.93;7.07;;;14.40;99.90;;;;;;5109924;28;20204;-70
2022/10/12 08:12:52;;;;;;;13.87;6.87;;;14.50;99.90;;;;;;5110913;28;20666;-68
2022/10/12 08:15:20;;;;;;;10.00;6.07;;;14.60;99.90;;;;;;5111469;28;20239;-69
2022/10/12 08:17:47;;;;;;;10.40;5.97;;;14.60;99.90;;;;;;5097593;28;20287;-68
2022/10/12 08:20:14;;;;;;;11.90;5.67;;;14.60;99.90;;;;;;5110745;28;20856;-68
2022/10/12 08:22:40;;;;;;;24.00;6.57;;;14.70;99.90;;;;;;5108461;28;20231;-68
2022/10/12 08:25:08;;;;;;;10.70;5.30;;;14.80;99.90;;;;;;5110678;28;20204;-69
2022/10/12 08:27:37;;;;;;;12.83;5.90;;;15.00;99.90;;;;;;5108947;28;20221;-68
2022/10/12 08:30:04;;;;;;;12.90;6.43;;;15.20;99.90;;;;;;5110978;28;20285;-66
2022/10/12 08:32:32;;;;;;;15.03;6.10;;;15.30;99.90;;;;;;5108541;27;20675;-67
2022/10/12 08:35:00;;;;;;;14.80;6.30;;;15.50;99.90;;;;;;5112289;28;20207;-67
2022/10/12 08:37:26;;;;;;;14.87;5.80;;;15.60;99.90;;;;;;5109709;28;20212;-67
2022/10/12 08:39:53;;;;;;;12.40;8.03;;;15.70;99.90;;;;;;5097040;28;20204;-68
2022/10/12 08:42:36;;;;;;;15.40;6.17;;;16.00;99.90;;;;;;5110434;28;20207;-68
2022/10/12 08:45:21;;;;;;;15.00;6.60;;;16.30;99.90;;;;;;5097305;28;20199;-69
2022/10/12 08:47:52;;;;;;;15.27;6.87;;;16.50;99.50;;;;;;5108128;28;20227;-69
2022/10/12 08:50:24;;;;;;;10.70;5.80;;;16.60;99.90;;;;;;5111413;28;20215;-68
2022/10/12 08:52:55;;;;;;;18.52;7.00;;;17.30;99.90;;;;;;5111922;28;20487;-68
2022/10/12 08:55:33;;;;;;;12.98;5.10;;;18.90;99.80;;;;;;5109436;28;20215;-69
2022/10/12 08:58:00;;;;;;;13.63;5.22;;;22.00;91.50;;;;;;5107685;28;20191;-68
2022/10/12 09:00:30;;;;;;;12.43;5.32;;;25.60;69.40;;;;;;5110991;28;20639;-68
2022/10/12 09:03:08;;;;;;;9.23;4.10;;;28.50;54.90;;;;;;5108332;28;20203;-68
2022/10/12 09:05:42;;;;;;;9.95;4.35;;;31.00;46.30;;;;;;5108557;28;20204;-69
2022/10/12 09:08:19;;;;;;;7.28;4.07;;;33.00;41.20;;;;;;5110444;28;20234;-69
2022/10/12 09:10:52;;;;;;;7.35;4.63;;;34.50;37.80;;;;;;5109539;27;20655;-68
2022/10/12 09:13:33;;;;;;;8.65;4.78;;;35.90;35.50;;;;;;5110067;28;20228;-68
2022/10/12 09:16:04;;;;;;;10.98;5.32;;;37.20;34.00;;;;;;5108259;28;20218;-69
2022/10/12 09:18:37;;;;;;;8.63;4.18;;;38.70;31.80;;;;;;5110551;28;20247;-69
2022/10/12 09:21:06;;;;;;;10.38;4.55;;;39.80;29.60;;;;;;5109668;28;20675;-70
2022/10/12 09:23:38;;;;;;;10.07;4.93;;;40.70;28.90;;;;;;5111415;28;20264;-68
2022/10/12 09:26:15;;;;;;;9.90;3.92;;;41.60;28.40;;;;;;5107191;28;20312;-69
2022/10/12 09:28:43;;;;;;;6.22;3.50;;;42.40;27.40;;;;;;5108670;28;20691;-68
2022/10/12 09:31:37;;;;;;;10.40;4.53;;;42.80;26.60;;;;;;5107112;28;20592;-69
2022/10/12 09:34:07;;;;;;;7.93;3.97;;;43.00;26.30;;;;;;5108970;28;20208;-68
2022/10/12 09:36:35;;;;;;;6.05;3.58;;;43.50;25.90;;;;;;5098811;28;20206;-68
2022/10/12 09:39:04;;;;;;;8.02;3.67;;;43.60;25.60;;;;;;5110249;28;20730;-69
2022/10/12 09:41:34;;;;;;;6.95;3.08;;;43.80;25.10;;;;;;5110400;28;20203;-68
2022/10/12 09:44:03;;;;;;;5.65;3.90;;;44.10;25.30;;;;;;5109990;28;20222;-68
2022/10/12 09:46:39;;;;;;;7.43;3.38;;;44.60;24.90;;;;;;5108255;28;20207;-68
2022/10/12 09:49:07;;;;;;;5.82;3.15;;;45.40;24.50;;;;;;5109602;28;20267;-67
2022/10/12 09:51:34;;;;;;;6.60;3.00;;;46.20;23.80;;;;;;5110369;28;20199;-68
2022/10/12 09:54:03;;;;;;;7.13;3.03;;;46.60;23.30;;;;;;5108648;28;20222;-70
2022/10/12 09:56:38;;;;;;;6.57;2.42;;;46.90;23.30;;;;;;5108706;28;20226;-69
2022/10/12 09:59:07;;;;;;;3.92;2.08;;;47.10;22.90;;;;;;5109500;28;20199;-68
2022/10/12 10:01:35;;;;;;;5.50;2.45;;;47.30;22.60;;;;;;5104638;28;20214;-69
2022/10/12 10:04:13;;;;;;;6.25;2.92;;;47.40;22.10;;;;;;5107358;27;20667;-68
2022/10/12 10:06:42;;;;;;;5.40;3.45;;;47.50;22.10;;;;;;5109431;28;20522;-68
2022/10/12 10:09:28;;;;;;;5.95;2.50;;;47.40;22.50;;;;;;5108587;28;20235;-68
2022/10/12 10:11:55;;;;;;;5.90;2.40;;;46.90;21.80;;;;;;5109528;28;20268;-67
2022/10/12 10:14:22;;;;;;;4.78;2.30;;;46.10;21.80;;;;;;5108474;28;20211;-69
2022/10/12 10:16:51;;;;;;;4.20;2.35;;;45.20;22.00;;;;;;5106652;28;20659;-68
2022/10/12 10:19:23;;;;;;;6.85;2.10;;;44.70;22.60;;;;;;5108798;28;20589;-68
2022/10/12 10:21:52;;;;;;;6.32;2.58;;;44.50;23.00;;;;;;5110098;28;20642;-68
2022/10/12 10:24:27;;;;;;;4.47;2.67;;;44.40;22.70;;;;;;5105997;28;20195;-68
2022/10/12 10:26:56;;;;;;;7.15;3.10;;;44.10;22.70;;;;;;5105407;28;20234;-68
2022/10/12 10:29:34;;;;;;;5.03;2.45;;;43.80;23.00;;;;;;5107701;28;20204;-68
2022/10/12 10:32:22;;;;;;;5.22;2.55;;;43.30;23.00;;;;;;5105744;28;20259;-69
2022/10/12 10:35:01;;;;;;;6.07;2.85;;;42.70;23.50;;;;;;5095368;28;20208;-68
2022/10/12 10:37:29;;;;;;;4.68;2.00;;;42.50;23.70;;;;;;5108939;28;20446;-69
2022/10/12 10:39:57;;;;;;;5.35;2.65;;;42.30;23.70;;;;;;5108593;28;20199;-68
2022/10/12 10:42:28;;;;;;;7.35;2.53;;;42.30;23.70;;;;;;5109391;28;20234;-68
2022/10/12 10:45:00;;;;;;;5.32;2.20;;;42.20;23.70;;;;;;5108337;28;20597;-68
2022/10/12 10:47:27;;;;;;;4.57;2.42;;;42.20;24.10;;;;;;5108809;28;20227;-68
2022/10/12 10:49:58;;;;;;;4.90;2.30;;;42.50;24.50;;;;;;5108769;28;20203;-68
2022/10/12 10:52:28;;;;;;;3.65;1.90;;;42.90;23.80;;;;;;5109565;28;20655;-68
2022/10/12 10:55:15;;;;;;;6.07;2.25;;;43.40;23.60;;;;;;5103253;28;20666;-69
2022/10/12 10:57:46;;;;;;;6.68;2.47;;;43.80;23.50;;;;;;5101775;28;20301;-68
2022/10/12 11:00:18;;;;;;;6.30;2.40;;;44.40;23.90;;;;;;5107198;28;20205;-68
2022/10/12 11:02:49;;;;;;;5.25;2.38;;;44.70;23.20;;;;;;5110074;28;20203;-68
2022/10/12 11:05:22;;;;;;;6.80;2.60;;;44.80;22.80;;;;;;5110430;28;20784;-68
2022/10/12 11:07:52;;;;;;;4.93;2.40;;;44.90;22.60;;;;;;5109013;27;20571;-68
2022/10/12 11:10:27;;;;;;;4.63;2.22;;;45.10;22.80;;;;;;5111186;28;20214;-68
2022/10/12 11:12:59;;;;;;;5.38;2.17;;;45.20;22.50;;;;;;5114626;28;20260;-68
2022/10/12 11:15:32;;;;;;;9.10;2.20;;;45.40;22.60;;;;;;5112865;28;20206;-69
2022/10/12 11:18:07;;;;;;;3.67;2.38;;;45.80;22.60;;;;;;5105749;28;20219;-67
2022/10/12 11:20:46;;;;;;;5.13;2.85;;;45.90;22.10;;;;;;5112251;28;20675;-67
2022/10/12 11:23:24;;;;;;;6.22;2.63;;;46.00;22.30;;;;;;5112654;28;20226;-67
2022/10/12 11:26:03;;;;;;;4.60;2.60;;;46.40;22.40;;;;;;5112763;28;20742;-68
2022/10/12 11:28:32;;;;;;;5.50;2.58;;;46.40;21.90;;;;;;5112477;28;20207;-68
2022/10/12 11:31:01;;;;;;;5.60;2.90;;;46.00;22.00;;;;;;5112935;28;20646;-66
2022/10/12 11:33:34;;;;;;;6.75;2.78;;;45.60;22.20;;;;;;5113447;28;20284;-67
2022/10/12 11:36:03;;;;;;;5.35;3.05;;;44.10;22.40;;;;;;5110848;28;20195;-67
2022/10/12 11:38:35;;;;;;;4.55;2.38;;;41.60;23.90;;;;;;5109669;27;20551;-67
2022/10/12 11:41:07;;;;;;;4.55;2.58;;;41.00;24.60;;;;;;5108173;28;20341;-69
2022/10/12 11:43:40;;;;;;;3.70;2.65;;;40.80;24.40;;;;;;5110025;28;20203;-69
2022/10/12 11:46:13;;;;;;;4.75;2.58;;;39.50;24.50;;;;;;5110234;28;20204;-68
2022/10/12 11:48:46;;;;;;;5.22;2.42;;;37.50;25.50;;;;;;5112235;28;20585;-68
2022/10/12 11:51:14;;;;;;;6.10;2.40;;;36.10;27.20;;;;;;5113225;28;20211;-67
2022/10/12 11:53:47;;;;;;;5.47;2.40;;;36.60;27.50;;;;;;5111811;28;20219;-68
2022/10/12 11:56:20;;;;;;;7.40;2.45;;;37.60;26.60;;;;;;5111283;27;20211;-68
2022/10/12 11:58:50;;;;;;;4.43;2.55;;;38.80;26.00;;;;;;5112518;28;20196;-69
2022/10/12 12:01:32;;;;;;;5.60;2.70;;;39.20;24.90;;;;;;5110118;27;20206;-66
2022/10/12 12:04:17;;;;;;;6.65;2.90;;;37.50;25.50;;;;;;5109820;28;20199;-68
2022/10/12 12:06:57;;;;;;;5.13;2.38;;;36.30;26.60;;;;;;5111355;28;20202;-68
2022/10/12 12:09:45;;;;;;;6.18;2.28;;;34.80;27.80;;;;;;5112333;28;20216;-67
2022/10/12 12:12:22;;;;;;;6.03;2.20;;;33.20;29.20;;;;;;5103119;28;20208;-68
2022/10/12 12:15:21;;;;;;;3.22;2.22;;;31.90;29.70;;;;;;5109552;28;20298;-68
2022/10/12 12:18:12;;;;;;;5.53;2.58;;;30.30;31.40;;;;;;5105126;28;20653;-67
2022/10/12 12:21:05;;;;;;;5.40;2.50;;;28.60;33.40;;;;;;5110850;28;20208;-68
2022/10/12 12:23:40;;;;;;;7.60;2.90;;;27.20;35.30;;;;;;5088404;28;20224;-68
2022/10/12 12:26:15;;;;;;;5.55;2.00;;;26.00;36.80;;;;;;5109816;28;20245;-68
2022/10/12 12:28:44;;;;;;;5.78;2.22;;;25.10;38.00;;;;;;5104183;28;20595;-69
2022/10/12 12:31:15;;;;;;;5.00;2.10;;;24.30;39.10;;;;;;5109014;28;20211;-69
2022/10/12 12:33:45;;;;;;;2.92;1.77;;;23.60;40.00;;;;;;5112938;28;20599;-68
2022/10/12 12:36:15;;;;;;;5.05;2.40;;;23.00;41.10;;;;;;5108552;28;20501;-68
2022/10/12 12:38:50;;;;;;;5.50;2.35;;;22.50;42.10;;;;;;5110912;28;20219;-69
2022/10/12 12:41:18;;;;;;;4.80;2.28;;;22.00;43.00;;;;;;5110846;28;20196;-68
2022/10/12 12:43:56;;;;;;;4.80;2.08;;;22.10;43.90;;;;;;5101950;28;20208;-69
2022/10/12 12:46:25;;;;;;;4.65;1.98;;;22.40;43.80;;;;;;5109456;28;20196;-69
2022/10/12 12:49:03;;;;;;;5.05;2.10;;;22.60;43.70;;;;;;5112099;28;20224;-69
2022/10/12 12:51:37;;;;;;;4.90;2.20;;;22.50;43.60;;;;;;5112244;28;20321;-69
2022/10/12 12:54:18;;;;;;;4.03;1.77;;;22.30;43.70;;;;;;5111636;28;20215;-68